sensor_id;sensor_type;location;lat;lon;timestamp;pressure;altitude;pressure_sealevel;temperature;humidity
40872;BME280;26591;43.264;26.940;2023-02-14T00:00:16;100413.63;;;1.60;73.37
40872;BME280;26591;43.264;26.940;2023-02-14T00:02:42;100415.09;;;1.66;74.01
40872;BME280;26591;43.264;26.940;2023-02-14T00:05:08;100408.97;;;1.67;73.62
40872;BME280;26591;43.264;26.940;2023-02-14T00:07:33;100410.03;;;1.63;73.86
40872;BME280;26591;43.264;26.940;2023-02-14T00:09:58;100409.03;;;1.83;73.29
40872;BME280;26591;43.264;26.940;2023-02-14T00:12:24;100394.19;;;1.48;73.15
40872;BME280;26591;43.264;26.940;2023-02-14T00:14:49;100413.16;;;1.70;73.82
40872;BME280;26591;43.264;26.940;2023-02-14T00:17:34;100404.75;;;1.09;74.80
40872;BME280;26591;43.264;26.940;2023-02-14T00:19:59;100411.09;;;1.03;75.75
40872;BME280;26591;43.264;26.940;2023-02-14T00:22:25;100399.78;;;1.41;75.03
40872;BME280;26591;43.264;26.940;2023-02-14T00:24:50;100408.28;;;1.44;74.80
40872;BME280;26591;43.264;26.940;2023-02-14T00:27:15;100408.38;;;1.43;74.98
40872;BME280;26591;43.264;26.940;2023-02-14T00:29:41;100399.25;;;1.51;73.84
40872;BME280;26591;43.264;26.940;2023-02-14T00:32:06;100406.19;;;1.52;74.70
40872;BME280;26591;43.264;26.940;2023-02-14T00:34:32;100398.09;;;1.40;74.76
40872;BME280;26591;43.264;26.940;2023-02-14T00:37:01;100395.94;;;1.30;74.68
40872;BME280;26591;43.264;26.940;2023-02-14T00:39:26;100387.78;;;1.36;75.07
40872;BME280;26591;43.264;26.940;2023-02-14T00:41:52;100389.50;;;1.55;74.85
40872;BME280;26591;43.264;26.940;2023-02-14T00:44:17;100387.19;;;1.49;74.17
40872;BME280;26591;43.264;26.940;2023-02-14T00:46:43;100388.19;;;1.46;73.66
40872;BME280;26591;43.264;26.940;2023-02-14T00:49:08;100386.31;;;1.31;74.40
40872;BME280;26591;43.264;26.940;2023-02-14T00:51:34;100379.44;;;1.47;73.43
40872;BME280;26591;43.264;26.940;2023-02-14T00:53:59;100382.16;;;1.46;73.69
40872;BME280;26591;43.264;26.940;2023-02-14T00:56:26;100368.16;;;1.29;74.60
40872;BME280;26591;43.264;26.940;2023-02-14T00:58:52;100369.25;;;1.43;74.38
40872;BME280;26591;43.264;26.940;2023-02-14T01:01:18;100369.09;;;1.46;74.07
40872;BME280;26591;43.264;26.940;2023-02-14T01:03:44;100364.63;;;1.48;73.72
40872;BME280;26591;43.264;26.940;2023-02-14T01:06:09;100355.56;;;1.37;73.37
40872;BME280;26591;43.264;26.940;2023-02-14T01:08:35;100344.72;;;1.28;73.80
40872;BME280;26591;43.264;26.940;2023-02-14T01:11:12;100342.41;;;1.04;74.42
40872;BME280;26591;43.264;26.940;2023-02-14T01:13:38;100341.88;;;1.15;74.03
40872;BME280;26591;43.264;26.940;2023-02-14T01:16:06;100332.81;;;0.85;74.51
40872;BME280;26591;43.264;26.940;2023-02-14T01:18:32;100336.72;;;0.57;75.28
40872;BME280;26591;43.264;26.940;2023-02-14T01:21:09;100330.78;;;0.92;75.88
40872;BME280;26591;43.264;26.940;2023-02-14T01:23:34;100320.44;;;0.52;76.44
40872;BME280;26591;43.264;26.940;2023-02-14T01:26:03;100317.69;;;0.36;76.19
40872;BME280;26591;43.264;26.940;2023-02-14T01:28:29;100312.25;;;0.22;77.54
40872;BME280;26591;43.264;26.940;2023-02-14T01:30:54;100312.00;;;0.47;77.80
40872;BME280;26591;43.264;26.940;2023-02-14T01:33:20;100317.22;;;0.28;78.07
40872;BME280;26591;43.264;26.940;2023-02-14T01:35:45;100321.16;;;0.56;76.84
40872;BME280;26591;43.264;26.940;2023-02-14T01:38:15;100321.97;;;0.75;77.32
40872;BME280;26591;43.264;26.940;2023-02-14T01:40:43;100313.34;;;-0.24;79.60
40872;BME280;26591;43.264;26.940;2023-02-14T01:43:14;100306.00;;;-0.14;79.95
40872;BME280;26591;43.264;26.940;2023-02-14T01:45:40;100306.44;;;-0.04;80.24
40872;BME280;26591;43.264;26.940;2023-02-14T01:48:08;100299.81;;;0.28;80.04
40872;BME280;26591;43.264;26.940;2023-02-14T01:50:36;100305.38;;;0.40;78.50
40872;BME280;26591;43.264;26.940;2023-02-14T01:53:15;100297.69;;;0.18;78.70
40872;BME280;26591;43.264;26.940;2023-02-14T01:55:46;100292.41;;;0.57;78.27
40872;BME280;26591;43.264;26.940;2023-02-14T01:58:20;100286.34;;;0.76;77.70
40872;BME280;26591;43.264;26.940;2023-02-14T02:00:48;100287.75;;;0.83;77.10
40872;BME280;26591;43.264;26.940;2023-02-14T02:06:13;100261.38;;;0.53;76.91
40872;BME280;26591;43.264;26.940;2023-02-14T02:08:46;100258.97;;;0.67;76.33
40872;BME280;26591;43.264;26.940;2023-02-14T02:11:14;100259.25;;;0.80;76.30
40872;BME280;26591;43.264;26.940;2023-02-14T02:13:40;100254.84;;;0.81;76.75
40872;BME280;26591;43.264;26.940;2023-02-14T02:16:34;100255.81;;;0.97;76.07
40872;BME280;26591;43.264;26.940;2023-02-14T02:41:19;100224.50;;;0.43;76.75
40872;BME280;26591;43.264;26.940;2023-02-14T02:46:34;100237.44;;;0.44;77.18
40872;BME280;26591;43.264;26.940;2023-02-14T02:58:32;100241.44;;;0.52;76.78
40872;BME280;26591;43.264;26.940;2023-02-14T03:01:02;100227.69;;;0.67;77.29
40872;BME280;26591;43.264;26.940;2023-02-14T03:03:32;100223.25;;;0.33;77.37
40872;BME280;26591;43.264;26.940;2023-02-14T03:06:17;100221.34;;;0.17;76.91
40872;BME280;26591;43.264;26.940;2023-02-14T03:08:43;100205.38;;;0.25;76.84
40872;BME280;26591;43.264;26.940;2023-02-14T03:11:11;100197.97;;;-0.23;78.53
40872;BME280;26591;43.264;26.940;2023-02-14T03:16:40;100186.44;;;-0.57;79.22
40872;BME280;26591;43.264;26.940;2023-02-14T03:24:35;100173.22;;;-1.35;81.10
40872;BME280;26591;43.264;26.940;2023-02-14T03:35:14;100147.16;;;-1.11;81.45
40872;BME280;26591;43.264;26.940;2023-02-14T03:37:56;100152.22;;;-1.51;81.27
40872;BME280;26591;43.264;26.940;2023-02-14T03:40:29;100148.34;;;-1.41;81.26
40872;BME280;26591;43.264;26.940;2023-02-14T03:43:05;100141.91;;;-1.32;81.45
40872;BME280;26591;43.264;26.940;2023-02-14T03:45:45;100118.88;;;-1.62;83.09
40872;BME280;26591;43.264;26.940;2023-02-14T03:48:13;100129.84;;;-1.33;82.93
40872;BME280;26591;43.264;26.940;2023-02-14T03:50:43;100127.47;;;-1.39;82.65
40872;BME280;26591;43.264;26.940;2023-02-14T03:53:11;100118.28;;;-1.46;83.04
40872;BME280;26591;43.264;26.940;2023-02-14T03:55:47;100115.31;;;-1.16;82.46
40872;BME280;26591;43.264;26.940;2023-02-14T03:58:23;100118.94;;;-1.00;82.17
40872;BME280;26591;43.264;26.940;2023-02-14T04:00:56;100120.94;;;-1.27;81.68
40872;BME280;26591;43.264;26.940;2023-02-14T04:03:24;100113.22;;;-1.72;82.63
40872;BME280;26591;43.264;26.940;2023-02-14T04:05:52;100112.56;;;-1.77;83.78
40872;BME280;26591;43.264;26.940;2023-02-14T04:08:27;100111.47;;;-1.28;82.25
40872;BME280;26591;43.264;26.940;2023-02-14T04:10:56;100113.03;;;-1.24;82.61
40872;BME280;26591;43.264;26.940;2023-02-14T04:13:23;100121.25;;;-1.35;83.33
40872;BME280;26591;43.264;26.940;2023-02-14T04:15:48;100121.25;;;-1.35;83.47
40872;BME280;26591;43.264;26.940;2023-02-14T04:18:13;100120.47;;;-1.37;83.48
40872;BME280;26591;43.264;26.940;2023-02-14T04:21:02;100114.59;;;-1.20;83.03
40872;BME280;26591;43.264;26.940;2023-02-14T04:23:28;100117.97;;;-1.18;82.07
40872;BME280;26591;43.264;26.940;2023-02-14T04:25:56;100129.31;;;-0.79;82.17
40872;BME280;26591;43.264;26.940;2023-02-14T04:28:21;100133.06;;;-0.66;81.86
40872;BME280;26591;43.264;26.940;2023-02-14T04:30:47;100133.00;;;-0.64;80.79
40872;BME280;26591;43.264;26.940;2023-02-14T04:33:12;100129.09;;;-0.54;80.36
40872;BME280;26591;43.264;26.940;2023-02-14T04:35:38;100119.34;;;-0.49;79.61
40872;BME280;26591;43.264;26.940;2023-02-14T04:38:04;100119.78;;;-0.99;79.46
40872;BME280;26591;43.264;26.940;2023-02-14T04:40:29;100134.06;;;-0.68;79.83
40872;BME280;26591;43.264;26.940;2023-02-14T04:42:55;100130.00;;;-0.55;79.37
40872;BME280;26591;43.264;26.940;2023-02-14T04:45:21;100134.72;;;-0.84;79.69
40872;BME280;26591;43.264;26.940;2023-02-14T04:47:46;100131.94;;;-1.63;80.39
40872;BME280;26591;43.264;26.940;2023-02-14T04:50:12;100133.75;;;-1.02;79.99
40872;BME280;26591;43.264;26.940;2023-02-14T04:52:38;100137.84;;;-0.96;80.42
40872;BME280;26591;43.264;26.940;2023-02-14T04:55:04;100135.63;;;-0.64;79.49
40872;BME280;26591;43.264;26.940;2023-02-14T04:57:30;100127.69;;;-0.61;79.65
40872;BME280;26591;43.264;26.940;2023-02-14T04:59:59;100126.00;;;-0.62;78.76
40872;BME280;26591;43.264;26.940;2023-02-14T05:02:24;100134.47;;;-0.98;79.93
40872;BME280;26591;43.264;26.940;2023-02-14T05:04:50;100136.78;;;-0.71;79.30
40872;BME280;26591;43.264;26.940;2023-02-14T05:07:16;100141.72;;;-0.65;79.11
40872;BME280;26591;43.264;26.940;2023-02-14T05:09:41;100140.13;;;-0.49;78.54
40872;BME280;26591;43.264;26.940;2023-02-14T05:12:07;100143.03;;;-0.75;78.83
40872;BME280;26591;43.264;26.940;2023-02-14T05:14:32;100144.53;;;-0.30;78.15
40872;BME280;26591;43.264;26.940;2023-02-14T05:16:58;100140.28;;;-0.33;78.43
40872;BME280;26591;43.264;26.940;2023-02-14T05:19:23;100137.69;;;0.06;77.99
40872;BME280;26591;43.264;26.940;2023-02-14T05:21:49;100133.00;;;0.32;77.33
40872;BME280;26591;43.264;26.940;2023-02-14T05:24:15;100128.69;;;-0.25;76.98
40872;BME280;26591;43.264;26.940;2023-02-14T05:26:41;100139.31;;;0.08;77.33
40872;BME280;26591;43.264;26.940;2023-02-14T05:29:06;100149.63;;;0.66;76.36
40872;BME280;26591;43.264;26.940;2023-02-14T05:31:32;100145.56;;;0.95;76.92
40872;BME280;26591;43.264;26.940;2023-02-14T05:33:57;100151.09;;;1.40;76.07
40872;BME280;26591;43.264;26.940;2023-02-14T05:36:23;100151.41;;;1.67;75.31
40872;BME280;26591;43.264;26.940;2023-02-14T05:38:49;100157.84;;;2.10;75.03
40872;BME280;26591;43.264;26.940;2023-02-14T05:41:14;100160.03;;;2.34;75.53
40872;BME280;26591;43.264;26.940;2023-02-14T05:43:40;100165.13;;;2.51;75.66
40872;BME280;26591;43.264;26.940;2023-02-14T05:46:05;100166.56;;;2.73;75.65
40872;BME280;26591;43.264;26.940;2023-02-14T05:48:31;100172.84;;;2.85;76.32
40872;BME280;26591;43.264;26.940;2023-02-14T05:51:05;100174.13;;;3.08;75.83
40872;BME280;26591;43.264;26.940;2023-02-14T05:53:31;100181.44;;;3.17;76.39
40872;BME280;26591;43.264;26.940;2023-02-14T05:55:57;100169.09;;;3.19;75.66
40872;BME280;26591;43.264;26.940;2023-02-14T05:58:22;100167.56;;;3.75;76.77
40872;BME280;26591;43.264;26.940;2023-02-14T06:00:48;100168.91;;;5.04;77.72
40872;BME280;26591;43.264;26.940;2023-02-14T06:03:14;100169.69;;;5.45;68.92
40872;BME280;26591;43.264;26.940;2023-02-14T06:05:40;100159.69;;;5.25;66.87
40872;BME280;26591;43.264;26.940;2023-02-14T06:08:05;100151.72;;;5.13;63.44
40872;BME280;26591;43.264;26.940;2023-02-14T06:10:31;100145.59;;;5.00;64.09
40872;BME280;26591;43.264;26.940;2023-02-14T06:12:57;100148.69;;;5.19;63.57
40872;BME280;26591;43.264;26.940;2023-02-14T06:15:22;100155.78;;;4.92;63.45
40872;BME280;26591;43.264;26.940;2023-02-14T06:17:55;100139.94;;;4.53;64.92
40872;BME280;26591;43.264;26.940;2023-02-14T06:20:22;100148.66;;;5.07;64.23
40872;BME280;26591;43.264;26.940;2023-02-14T06:22:49;100131.63;;;4.86;63.24
40872;BME280;26591;43.264;26.940;2023-02-14T06:25:15;100134.34;;;4.72;63.77
40872;BME280;26591;43.264;26.940;2023-02-14T06:27:43;100143.41;;;5.32;63.67
40872;BME280;26591;43.264;26.940;2023-02-14T06:30:09;100136.84;;;5.90;61.84
40872;BME280;26591;43.264;26.940;2023-02-14T06:32:35;100136.88;;;6.03;60.84
40872;BME280;26591;43.264;26.940;2023-02-14T06:35:01;100136.91;;;6.14;59.70
40872;BME280;26591;43.264;26.940;2023-02-14T06:37:27;100138.41;;;6.05;59.23
40872;BME280;26591;43.264;26.940;2023-02-14T06:39:53;100139.56;;;6.14;59.76
40872;BME280;26591;43.264;26.940;2023-02-14T06:42:18;100130.38;;;6.44;59.89
40872;BME280;26591;43.264;26.940;2023-02-14T06:44:44;100132.88;;;5.84;59.81
40872;BME280;26591;43.264;26.940;2023-02-14T06:47:10;100128.25;;;6.01;59.95
40872;BME280;26591;43.264;26.940;2023-02-14T06:49:35;100127.56;;;5.97;60.15
40872;BME280;26591;43.264;26.940;2023-02-14T06:52:03;100123.84;;;6.25;59.74
40872;BME280;26591;43.264;26.940;2023-02-14T06:54:28;100130.31;;;5.95;60.18
40872;BME280;26591;43.264;26.940;2023-02-14T06:56:54;100124.22;;;6.08;59.38
40872;BME280;26591;43.264;26.940;2023-02-14T06:59:19;100117.53;;;5.78;60.24
40872;BME280;26591;43.264;26.940;2023-02-14T07:01:45;100106.25;;;5.89;60.61
40872;BME280;26591;43.264;26.940;2023-02-14T07:04:13;100105.88;;;5.69;59.92
40872;BME280;26591;43.264;26.940;2023-02-14T07:06:38;100104.03;;;5.32;60.77
40872;BME280;26591;43.264;26.940;2023-02-14T07:09:04;100103.66;;;5.13;61.68
40872;BME280;26591;43.264;26.940;2023-02-14T07:11:30;100103.09;;;4.82;62.87
40872;BME280;26591;43.264;26.940;2023-02-14T07:13:56;100117.84;;;4.70;62.96
40872;BME280;26591;43.264;26.940;2023-02-14T07:16:21;100111.03;;;4.80;62.68
40872;BME280;26591;43.264;26.940;2023-02-14T07:18:46;100122.47;;;4.66;63.46
40872;BME280;26591;43.264;26.940;2023-02-14T07:21:14;100110.22;;;4.93;62.96
40872;BME280;26591;43.264;26.940;2023-02-14T07:23:40;100125.22;;;4.78;63.04
40872;BME280;26591;43.264;26.940;2023-02-14T07:26:05;100131.44;;;5.02;62.54
40872;BME280;26591;43.264;26.940;2023-02-14T07:28:31;100127.06;;;5.29;61.58
40872;BME280;26591;43.264;26.940;2023-02-14T07:31:00;100136.63;;;5.43;61.21
40872;BME280;26591;43.264;26.940;2023-02-14T07:33:26;100142.50;;;5.46;61.07
40872;BME280;26591;43.264;26.940;2023-02-14T07:35:51;100143.94;;;5.63;60.96
40872;BME280;26591;43.264;26.940;2023-02-14T07:38:17;100145.72;;;5.63;60.43
40872;BME280;26591;43.264;26.940;2023-02-14T07:40:42;100121.47;;;4.95;61.41
40872;BME280;26591;43.264;26.940;2023-02-14T07:43:08;100133.97;;;5.04;61.96
40872;BME280;26591;43.264;26.940;2023-02-14T07:45:34;100139.03;;;5.07;62.05
40872;BME280;26591;43.264;26.940;2023-02-14T07:47:59;100143.25;;;4.82;62.62
40872;BME280;26591;43.264;26.940;2023-02-14T07:50:27;100126.69;;;4.95;63.11
40872;BME280;26591;43.264;26.940;2023-02-14T07:52:53;100124.84;;;5.10;62.08
40872;BME280;26591;43.264;26.940;2023-02-14T07:55:19;100134.19;;;5.27;61.21
40872;BME280;26591;43.264;26.940;2023-02-14T07:57:48;100108.16;;;5.11;62.02
40872;BME280;26591;43.264;26.940;2023-02-14T08:00:14;100122.41;;;5.07;61.81
40872;BME280;26591;43.264;26.940;2023-02-14T08:02:40;100119.16;;;5.03;61.83
40872;BME280;26591;43.264;26.940;2023-02-14T08:05:06;100126.53;;;5.11;61.99
40872;BME280;26591;43.264;26.940;2023-02-14T08:07:32;100127.91;;;5.29;61.20
40872;BME280;26591;43.264;26.940;2023-02-14T08:09:57;100123.03;;;5.49;60.83
40872;BME280;26591;43.264;26.940;2023-02-14T08:12:23;100113.75;;;5.69;60.18
40872;BME280;26591;43.264;26.940;2023-02-14T08:17:42;100121.41;;;6.22;58.49
40872;BME280;26591;43.264;26.940;2023-02-14T08:20:08;100143.41;;;6.46;58.11
40872;BME280;26591;43.264;26.940;2023-02-14T08:22:33;100135.34;;;6.60;57.46
40872;BME280;26591;43.264;26.940;2023-02-14T08:24:59;100130.72;;;6.39;57.35
40872;BME280;26591;43.264;26.940;2023-02-14T08:27:24;100132.00;;;6.09;58.88
40872;BME280;26591;43.264;26.940;2023-02-14T08:29:50;100125.88;;;6.09;58.64
40872;BME280;26591;43.264;26.940;2023-02-14T08:32:15;100122.97;;;5.88;58.82
40872;BME280;26591;43.264;26.940;2023-02-14T08:34:45;100121.38;;;5.98;58.97
40872;BME280;26591;43.264;26.940;2023-02-14T08:37:11;100136.28;;;6.10;58.69
40872;BME280;26591;43.264;26.940;2023-02-14T08:39:39;100136.28;;;6.10;58.14
40872;BME280;26591;43.264;26.940;2023-02-14T08:42:05;100132.94;;;5.95;58.28
40872;BME280;26591;43.264;26.940;2023-02-14T08:44:31;100123.13;;;5.60;58.84
40872;BME280;26591;43.264;26.940;2023-02-14T08:46:56;100119.34;;;5.77;58.66
40872;BME280;26591;43.264;26.940;2023-02-14T08:51:47;100131.81;;;6.48;57.09
40872;BME280;26591;43.264;26.940;2023-02-14T08:54:12;100122.53;;;6.55;57.27
40872;BME280;26591;43.264;26.940;2023-02-14T08:56:38;100119.78;;;6.93;55.77
40872;BME280;26591;43.264;26.940;2023-02-14T08:59:05;100120.91;;;7.13;55.71
40872;BME280;26591;43.264;26.940;2023-02-14T09:01:30;100114.44;;;7.28;54.56
40872;BME280;26591;43.264;26.940;2023-02-14T09:03:56;100113.16;;;7.34;55.16
40872;BME280;26591;43.264;26.940;2023-02-14T09:06:22;100120.34;;;7.55;54.56
40872;BME280;26591;43.264;26.940;2023-02-14T09:08:47;100112.56;;;7.53;54.09
40872;BME280;26591;43.264;26.940;2023-02-14T09:11:16;100113.63;;;7.51;53.89
40872;BME280;26591;43.264;26.940;2023-02-14T09:13:43;100104.28;;;7.58;54.24
40872;BME280;26591;43.264;26.940;2023-02-14T09:16:11;100107.63;;;7.71;53.61
40872;BME280;26591;43.264;26.940;2023-02-14T09:18:37;100115.31;;;7.29;54.47
40872;BME280;26591;43.264;26.940;2023-02-14T09:23:28;100114.34;;;7.75;53.52
40872;BME280;26591;43.264;26.940;2023-02-14T09:26:21;100112.91;;;7.60;53.08
40872;BME280;26591;43.264;26.940;2023-02-14T09:28:48;100108.97;;;7.54;53.30
40872;BME280;26591;43.264;26.940;2023-02-14T09:31:18;100101.91;;;7.77;52.95
40872;BME280;26591;43.264;26.940;2023-02-14T09:33:45;100104.84;;;7.96;53.18
40872;BME280;26591;43.264;26.940;2023-02-14T09:36:30;100096.03;;;8.18;52.61
40872;BME280;26591;43.264;26.940;2023-02-14T09:38:55;100106.16;;;8.45;52.01
40872;BME280;26591;43.264;26.940;2023-02-14T09:41:32;100103.63;;;8.76;51.10
40872;BME280;26591;43.264;26.940;2023-02-14T09:46:52;100085.09;;;8.66;51.10
40872;BME280;26591;43.264;26.940;2023-02-14T09:49:35;100097.69;;;8.63;50.28
40872;BME280;26591;43.264;26.940;2023-02-14T09:52:03;100085.94;;;8.88;49.77
40872;BME280;26591;43.264;26.940;2023-02-14T09:54:32;100096.72;;;8.85;50.52
40872;BME280;26591;43.264;26.940;2023-02-14T10:00:45;100094.56;;;9.42;49.00
40872;BME280;26591;43.264;26.940;2023-02-14T10:05:31;100085.81;;;9.21;49.31
40872;BME280;26591;43.264;26.940;2023-02-14T10:08:15;100087.38;;;9.23;48.67
40872;BME280;26591;43.264;26.940;2023-02-14T10:10:48;100073.28;;;9.44;48.89
40872;BME280;26591;43.264;26.940;2023-02-14T10:18:59;100071.59;;;9.84;46.79
40872;BME280;26591;43.264;26.940;2023-02-14T10:21:31;100071.03;;;9.39;46.25
40872;BME280;26591;43.264;26.940;2023-02-14T10:24:08;100070.78;;;9.42;46.69
40872;BME280;26591;43.264;26.940;2023-02-14T10:26:38;100071.81;;;9.61;45.62
40872;BME280;26591;43.264;26.940;2023-02-14T10:29:13;100072.03;;;9.99;45.28
40872;BME280;26591;43.264;26.940;2023-02-14T10:31:53;100069.66;;;9.96;46.03
40872;BME280;26591;43.264;26.940;2023-02-14T10:34:24;100068.00;;;10.04;45.32
40872;BME280;26591;43.264;26.940;2023-02-14T10:40:08;100067.19;;;10.63;44.03
40872;BME280;26591;43.264;26.940;2023-02-14T10:56:16;100039.63;;;10.56;42.99
40872;BME280;26591;43.264;26.940;2023-02-14T10:58:44;100049.81;;;10.50;42.85
40872;BME280;26591;43.264;26.940;2023-02-14T11:01:11;100041.84;;;10.01;42.68
40872;BME280;26591;43.264;26.940;2023-02-14T11:03:40;100044.06;;;10.06;42.25
40872;BME280;26591;43.264;26.940;2023-02-14T11:06:08;100027.53;;;10.43;42.21
40872;BME280;26591;43.264;26.940;2023-02-14T11:08:36;100038.91;;;10.34;43.16
40872;BME280;26591;43.264;26.940;2023-02-14T11:11:24;100032.53;;;10.46;42.99
40872;BME280;26591;43.264;26.940;2023-02-14T11:13:52;100029.16;;;10.64;42.90
40872;BME280;26591;43.264;26.940;2023-02-14T11:19:28;100011.63;;;10.04;43.75
40872;BME280;26591;43.264;26.940;2023-02-14T11:21:56;100008.28;;;10.21;43.37
40872;BME280;26591;43.264;26.940;2023-02-14T11:26:58;100006.47;;;10.61;42.68
40872;BME280;26591;43.264;26.940;2023-02-14T11:32:13;99994.09;;;10.42;43.00
40872;BME280;26591;43.264;26.940;2023-02-14T11:38:01;99983.47;;;9.54;43.84
40872;BME280;26591;43.264;26.940;2023-02-14T11:40:31;99980.50;;;9.37;44.36
40872;BME280;26591;43.264;26.940;2023-02-14T11:43:00;99989.75;;;9.22;44.94
40872;BME280;26591;43.264;26.940;2023-02-14T11:45:36;99980.81;;;9.54;44.46
40872;BME280;26591;43.264;26.940;2023-02-14T11:50:42;99991.50;;;9.42;46.09
40872;BME280;26591;43.264;26.940;2023-02-14T11:53:12;99996.69;;;9.64;45.07
40872;BME280;26591;43.264;26.940;2023-02-14T11:55:53;99979.31;;;9.10;44.89
40872;BME280;26591;43.264;26.940;2023-02-14T11:58:43;99982.03;;;8.68;45.64
40872;BME280;26591;43.264;26.940;2023-02-14T12:01:23;99981.69;;;8.40;46.99
40872;BME280;26591;43.264;26.940;2023-02-14T12:03:54;99980.03;;;8.60;46.95
40872;BME280;26591;43.264;26.940;2023-02-14T12:06:32;99975.53;;;8.72;46.39
40872;BME280;26591;43.264;26.940;2023-02-14T12:11:59;99975.25;;;9.06;45.82
40872;BME280;26591;43.264;26.940;2023-02-14T12:14:33;99977.75;;;9.58;44.55
40872;BME280;26591;43.264;26.940;2023-02-14T12:17:22;99977.81;;;9.98;44.15
40872;BME280;26591;43.264;26.940;2023-02-14T12:20:14;99968.16;;;10.36;43.09
40872;BME280;26591;43.264;26.940;2023-02-14T12:25:16;99963.72;;;10.36;43.20
40872;BME280;26591;43.264;26.940;2023-02-14T12:27:45;99961.91;;;10.57;42.73
40872;BME280;26591;43.264;26.940;2023-02-14T12:30:14;99969.94;;;10.65;43.19
40872;BME280;26591;43.264;26.940;2023-02-14T12:32:47;99956.75;;;10.35;43.83
40872;BME280;26591;43.264;26.940;2023-02-14T12:35:17;99953.44;;;9.94;43.60
40872;BME280;26591;43.264;26.940;2023-02-14T12:45:55;99960.25;;;9.77;45.15
40872;BME280;26591;43.264;26.940;2023-02-14T12:57:28;99954.22;;;9.36;48.72
40872;BME280;26591;43.264;26.940;2023-02-14T13:05:48;99932.66;;;8.80;50.26
40872;BME280;26591;43.264;26.940;2023-02-14T13:11:07;99933.81;;;8.45;50.74
40872;BME280;26591;43.264;26.940;2023-02-14T13:13:51;99930.66;;;8.72;49.93
40872;BME280;26591;43.264;26.940;2023-02-14T13:16:28;99927.03;;;8.63;50.63
40872;BME280;26591;43.264;26.940;2023-02-14T13:19:02;99936.88;;;8.92;50.28
40872;BME280;26591;43.264;26.940;2023-02-14T13:21:33;99929.41;;;9.07;49.56
40872;BME280;26591;43.264;26.940;2023-02-14T13:26:40;99929.47;;;9.37;49.22
40872;BME280;26591;43.264;26.940;2023-02-14T13:29:18;99922.09;;;9.30;48.99
40872;BME280;26591;43.264;26.940;2023-02-14T13:31:45;99917.94;;;9.57;47.82
40872;BME280;26591;43.264;26.940;2023-02-14T13:34:31;99919.56;;;9.19;47.98
40872;BME280;26591;43.264;26.940;2023-02-14T13:36:58;99912.78;;;9.26;47.60
40872;BME280;26591;43.264;26.940;2023-02-14T13:39:36;99912.53;;;8.89;48.26
40872;BME280;26591;43.264;26.940;2023-02-14T13:42:03;99912.31;;;8.70;49.03
40872;BME280;26591;43.264;26.940;2023-02-14T13:47:17;99925.03;;;10.06;50.36
40872;BME280;26591;43.264;26.940;2023-02-14T13:50:01;99917.25;;;10.04;46.37
40872;BME280;26591;43.264;26.940;2023-02-14T13:52:47;99939.25;;;9.66;46.77
40872;BME280;26591;43.264;26.940;2023-02-14T13:55:21;99934.22;;;9.33;47.54
40872;BME280;26591;43.264;26.940;2023-02-14T13:58:05;99927.59;;;9.08;47.66
40872;BME280;26591;43.264;26.940;2023-02-14T14:00:39;99929.00;;;8.71;48.73
40872;BME280;26591;43.264;26.940;2023-02-14T14:03:09;99935.66;;;8.65;48.41
40872;BME280;26591;43.264;26.940;2023-02-14T14:05:48;99932.50;;;8.81;52.04
40872;BME280;26591;43.264;26.940;2023-02-14T14:18:49;99903.38;;;8.62;48.78
40872;BME280;26591;43.264;26.940;2023-02-14T14:21:27;99896.94;;;8.76;48.55
40872;BME280;26591;43.264;26.940;2023-02-14T14:24:22;99905.47;;;8.99;47.79
40872;BME280;26591;43.264;26.940;2023-02-14T14:26:51;99903.47;;;9.32;50.67
40872;BME280;26591;43.264;26.940;2023-02-14T14:29:39;99909.25;;;9.16;47.63
40872;BME280;26591;43.264;26.940;2023-02-14T14:32:33;99905.50;;;9.09;47.38
40872;BME280;26591;43.264;26.940;2023-02-14T14:35:00;99903.63;;;8.49;47.91
40872;BME280;26591;43.264;26.940;2023-02-14T14:37:29;99905.19;;;8.61;48.44
40872;BME280;26591;43.264;26.940;2023-02-14T14:40:05;99904.75;;;8.56;48.95
40872;BME280;26591;43.264;26.940;2023-02-14T14:42:35;99906.91;;;8.20;49.20
40872;BME280;26591;43.264;26.940;2023-02-14T14:45:06;99905.41;;;7.85;50.04
40872;BME280;26591;43.264;26.940;2023-02-14T14:47:43;99899.66;;;7.79;50.89
40872;BME280;26591;43.264;26.940;2023-02-14T14:50:31;99895.81;;;7.84;50.15
40872;BME280;26591;43.264;26.940;2023-02-14T14:53:05;99898.44;;;7.84;50.25
40872;BME280;26591;43.264;26.940;2023-02-14T14:55:34;99905.28;;;7.86;49.91
40872;BME280;26591;43.264;26.940;2023-02-14T14:58:05;99911.28;;;8.52;59.27
40872;BME280;26591;43.264;26.940;2023-02-14T15:00:34;99910.41;;;9.43;57.18
40872;BME280;26591;43.264;26.940;2023-02-14T15:05:46;99892.63;;;8.75;47.83
40872;BME280;26591;43.264;26.940;2023-02-14T15:10:55;99901.41;;;8.33;49.03
40872;BME280;26591;43.264;26.940;2023-02-14T15:16:27;99912.41;;;7.74;50.70
40872;BME280;26591;43.264;26.940;2023-02-14T15:18:59;99909.00;;;7.18;51.17
40872;BME280;26591;43.264;26.940;2023-02-14T15:21:31;99917.16;;;7.04;51.93
40872;BME280;26591;43.264;26.940;2023-02-14T15:23:58;99914.50;;;7.15;51.30
40872;BME280;26591;43.264;26.940;2023-02-14T15:26:30;99923.00;;;7.08;50.86
40872;BME280;26591;43.264;26.940;2023-02-14T15:28:59;99909.22;;;7.15;50.81
40872;BME280;26591;43.264;26.940;2023-02-14T15:31:29;99917.00;;;7.06;51.69
40872;BME280;26591;43.264;26.940;2023-02-14T15:33:57;99913.41;;;7.07;51.04
40872;BME280;26591;43.264;26.940;2023-02-14T15:36:24;99913.91;;;7.12;51.59
40872;BME280;26591;43.264;26.940;2023-02-14T15:38:52;99915.22;;;6.95;51.12
40872;BME280;26591;43.264;26.940;2023-02-14T15:41:19;99915.59;;;6.67;51.96
40872;BME280;26591;43.264;26.940;2023-02-14T15:43:49;99912.47;;;6.39;52.28